KINT/INT METAR and TAF weather

Enter ICAO airport designator
Station Type Date Time Source
KINT METAR 2023/01/30 11:18 UTC NOAA

KINT 301118Z AUTO 19003KT 3SM BR CLR 06/05 A3014 RMK AO2 T00560050


Station Type Date Time Source
KINT Decoded METAR 2023/01/30 11:18 UTC NOAA

WINSTON SALEM SMITH REYNOLDS, NC, United States (KINT) 36-08N 80-14W 291M
Jan 30, 2023 - 06:18 AM EST / 2023.01.30 1118 UTC
Wind: from the S (190 degrees) at 3 MPH (3 KT):0
Visibility: 3 mile(s):0
Sky conditions: clear
Weather: mist
Temperature: 42.1 F (5.6 C)
Dew Point: 41.0 F (5.0 C)
Relative Humidity: 95%
Pressure (altimeter): 30.14 in. Hg (1020 hPa)
ob: KINT 301118Z AUTO 19003KT 3SM BR CLR 06/05 A3014 RMK AO2 T00560050
cycle: 11

Station Type Date Time Source
KINT TAF 2023/01/30 11:45 UTC NOAA

TAF
AMD KINT 301041Z 3011/3106 VRB03KT 4SM BR OVC070
TEMPO 3011/3014 1/4SM FG BKN002
FM301400 27003KT P6SM SCT005 OVC070
FM301600 24004KT P6SM SCT025 BKN050

Example: see airport list